createdAt,value
2022-11-19T00:02:23.267Z,100.00
2022-11-19T00:05:25.444Z,100.00
2022-11-19T00:08:27.356Z,100.00
2022-11-19T00:11:48.267Z,100.00
2022-11-19T00:14:50.209Z,100.00
2022-11-19T00:17:52.389Z,100.00
2022-11-19T00:20:56.358Z,100.00
2022-11-19T00:23:58.914Z,100.00
2022-11-19T00:27:00.788Z,100.00
2022-11-19T00:30:11.007Z,100.00
2022-11-19T00:33:22.064Z,100.00
2022-11-19T00:36:24.471Z,100.00
2022-11-19T00:39:26.444Z,100.00
2022-11-19T00:42:28.649Z,100.00
2022-11-19T00:45:30.638Z,100.00
2022-11-19T00:48:33.021Z,100.00
2022-11-19T00:51:34.931Z,100.00
2022-11-19T00:54:37.180Z,100.00
2022-11-19T00:57:39.058Z,100.00
2022-11-19T01:00:41.372Z,100.00
2022-11-19T01:03:45.399Z,100.00
2022-11-19T01:06:47.689Z,100.00
2022-11-19T01:09:49.679Z,100.00
2022-11-19T01:13:10.894Z,100.00
2022-11-19T01:16:14.375Z,100.00
2022-11-19T01:19:17.132Z,100.00
2022-11-19T01:22:19.366Z,100.00
2022-11-19T01:25:21.556Z,100.00
2022-11-19T01:28:23.761Z,100.00
2022-11-19T01:31:27.831Z,100.00
2022-11-19T01:34:29.732Z,100.00
2022-11-19T01:37:32.415Z,100.00
2022-11-19T01:40:41.555Z,100.00
2022-11-19T01:43:48.480Z,100.00
2022-11-19T01:46:50.380Z,100.00
2022-11-19T01:49:52.611Z,100.00
2022-11-19T01:52:54.824Z,100.00
2022-11-19T01:56:03.867Z,100.00
2022-11-19T01:59:09.347Z,100.00
2022-11-19T02:02:12.741Z,100.00
2022-11-19T02:05:15.576Z,100.00
2022-11-19T02:08:38.975Z,100.00
2022-11-19T02:11:50.349Z,100.00
2022-11-19T02:15:11.054Z,100.00
2022-11-19T02:18:25.689Z,100.00
2022-11-19T02:21:38.009Z,100.00
2022-11-19T02:24:46.481Z,100.00
2022-11-19T02:27:48.344Z,100.00
2022-11-19T02:30:52.616Z,100.00
2022-11-19T02:33:57.984Z,100.00
2022-11-19T02:37:12.974Z,100.00
2022-11-19T02:40:24.900Z,100.00
2022-11-19T02:43:35.210Z,100.00
2022-11-19T02:46:38.004Z,100.00
2022-11-19T02:49:43.705Z,100.00
2022-11-19T02:52:46.676Z,100.00
2022-11-19T02:56:08.805Z,100.00
2022-11-19T02:59:30.325Z,100.00
2022-11-19T03:02:58.134Z,100.00
2022-11-19T03:06:02.107Z,100.00
2022-11-19T03:09:04.429Z,100.00
2022-11-19T03:12:30.696Z,100.00
2022-11-19T03:15:51.641Z,100.00
2022-11-19T03:19:00.312Z,100.00
2022-11-19T03:22:06.194Z,100.00
2022-11-19T03:25:21.643Z,100.00
2022-11-19T03:28:27.383Z,100.00
2022-11-19T03:31:31.523Z,100.00
2022-11-19T03:34:34.812Z,100.00
2022-11-19T03:37:39.051Z,100.00
2022-11-19T03:40:42.088Z,100.00
2022-11-19T03:43:46.785Z,100.00
2022-11-19T03:46:52.474Z,100.00
2022-11-19T03:49:58.564Z,100.00
2022-11-19T03:53:04.272Z,100.00
2022-11-19T03:56:15.172Z,100.00
2022-11-19T03:59:18.008Z,100.00
2022-11-19T04:02:20.316Z,100.00
2022-11-19T04:05:22.512Z,100.00
2022-11-19T04:08:24.415Z,100.00
2022-11-19T04:14:27.493Z,100.00
2022-11-19T04:17:29.731Z,100.00
2022-11-19T04:20:31.655Z,100.00
2022-11-19T04:23:33.807Z,100.00
2022-11-19T04:26:35.701Z,100.00
2022-11-19T04:29:37.903Z,100.00
2022-11-19T04:32:39.803Z,100.00
2022-11-19T04:35:44.843Z,100.00
2022-11-19T04:38:46.782Z,100.00
2022-11-19T04:41:49.087Z,100.00
2022-11-19T04:44:51.022Z,100.00
2022-11-19T04:47:53.396Z,100.00
2022-11-19T04:50:55.354Z,100.00
2022-11-19T04:53:57.530Z,100.00
2022-11-19T04:57:00.774Z,98.86
2022-11-19T05:00:04.174Z,100.00
2022-11-19T05:03:06.167Z,100.00
2022-11-19T05:06:08.400Z,100.00
2022-11-19T05:09:10.378Z,99.78
2022-11-19T05:12:12.606Z,100.00
2022-11-19T05:15:14.598Z,100.00
2022-11-19T05:18:16.812Z,100.00
2022-11-19T05:21:18.789Z,98.32
2022-11-19T05:24:21.033Z,100.00
2022-11-19T05:27:22.902Z,100.00
2022-11-19T05:30:25.118Z,100.00
2022-11-19T05:33:31.186Z,100.00
2022-11-19T05:36:36.141Z,100.00
2022-11-19T05:39:38.174Z,100.00
2022-11-19T05:42:40.400Z,100.00
2022-11-19T05:45:42.339Z,100.00
2022-11-19T05:48:44.526Z,100.00
2022-11-19T05:51:47.015Z,100.00
2022-11-19T05:54:49.274Z,98.24
2022-11-19T05:57:51.251Z,100.00
2022-11-19T06:00:54.388Z,97.84
2022-11-19T06:03:57.038Z,97.06
2022-11-19T06:06:58.963Z,98.47
2022-11-19T06:10:01.206Z,97.24
2022-11-19T06:13:03.116Z,97.25
2022-11-19T06:16:05.344Z,96.74
2022-11-19T06:19:07.248Z,97.02
2022-11-19T06:22:09.511Z,98.99
2022-11-19T06:25:11.407Z,99.56
2022-11-19T06:28:13.640Z,98.20
2022-11-19T06:31:15.558Z,95.03
2022-11-19T06:34:17.790Z,91.12
2022-11-19T06:37:19.689Z,93.50
2022-11-19T06:40:21.893Z,94.36
2022-11-19T06:43:23.790Z,94.53
2022-11-19T06:46:26.017Z,93.39
2022-11-19T06:49:27.894Z,91.76
2022-11-19T06:52:30.132Z,90.94
2022-11-19T06:55:32.091Z,94.22
2022-11-19T06:58:34.740Z,92.94
2022-11-19T07:01:36.687Z,90.64
2022-11-19T07:04:39.064Z,90.22
2022-11-19T07:07:41.032Z,88.48
2022-11-19T07:10:43.350Z,86.71
2022-11-19T07:13:57.386Z,88.67
2022-11-19T07:16:59.607Z,88.31
2022-11-19T07:20:01.825Z,87.09
2022-11-19T07:23:03.969Z,86.65
2022-11-19T07:26:05.992Z,87.81
2022-11-19T07:29:08.507Z,89.56
2022-11-19T07:32:10.400Z,90.29
2022-11-19T07:35:12.773Z,90.03
2022-11-19T07:38:14.739Z,88.19
2022-11-19T07:41:35.923Z,89.96
2022-11-19T07:44:37.840Z,88.80
2022-11-19T07:47:39.994Z,89.13
2022-11-19T07:50:42.002Z,86.51
2022-11-19T07:53:44.182Z,85.42
2022-11-19T07:56:46.133Z,86.83
2022-11-19T07:59:48.475Z,82.77
2022-11-19T08:02:50.462Z,80.80
2022-11-19T08:05:52.641Z,80.47
2022-11-19T08:08:55.890Z,80.17
2022-11-19T08:11:58.108Z,80.66
2022-11-19T08:15:00.018Z,81.54
2022-11-19T08:18:15.634Z,83.24
2022-11-19T08:21:17.553Z,84.33
2022-11-19T08:24:20.737Z,84.56
2022-11-19T08:27:22.861Z,83.14
2022-11-19T08:30:25.012Z,82.87
2022-11-19T08:33:27.065Z,84.47
2022-11-19T08:36:29.387Z,84.34
2022-11-19T08:39:31.972Z,83.80
2022-11-19T08:42:52.680Z,84.94
2022-11-19T08:45:54.583Z,84.95
2022-11-19T08:48:56.913Z,83.04
2022-11-19T08:51:58.825Z,82.61
2022-11-19T08:55:00.951Z,82.68
2022-11-19T08:58:04.209Z,84.91
2022-11-19T09:01:10.653Z,81.81
2022-11-19T09:04:12.673Z,81.25
2022-11-19T09:07:14.916Z,81.26
2022-11-19T09:10:17.470Z,77.42
2022-11-19T09:13:19.683Z,78.87
2022-11-19T09:16:21.644Z,77.95
2022-11-19T09:19:23.897Z,75.56
2022-11-19T09:22:25.890Z,75.39
2022-11-19T09:25:29.194Z,73.67
2022-11-19T09:28:31.423Z,73.02
2022-11-19T09:31:33.727Z,71.65
2022-11-19T09:34:37.868Z,72.15
2022-11-19T09:37:40.044Z,72.82
2022-11-19T09:40:46.214Z,77.51
2022-11-19T09:43:54.565Z,73.54
2022-11-19T09:47:01.636Z,73.90
2022-11-19T09:50:22.451Z,71.56
2022-11-19T09:53:24.432Z,72.44
2022-11-19T09:56:30.056Z,69.39
2022-11-19T09:59:39.797Z,67.50
2022-11-19T10:02:41.968Z,70.12
2022-11-19T10:06:03.051Z,67.85
2022-11-19T10:09:10.707Z,64.61
2022-11-19T10:12:32.206Z,66.12
2022-11-19T10:15:42.078Z,66.54
2022-11-19T10:18:56.550Z,67.88
2022-11-19T10:22:01.400Z,69.57
2022-11-19T10:25:06.627Z,73.21
2022-11-19T10:28:12.085Z,71.38
2022-11-19T10:31:29.267Z,71.54
2022-11-19T10:34:35.139Z,70.65
2022-11-19T10:37:40.753Z,73.07
2022-11-19T10:40:44.976Z,73.59
2022-11-19T10:43:50.522Z,69.43
2022-11-19T10:46:52.555Z,69.29
2022-11-19T10:49:54.988Z,69.77
2022-11-19T10:52:59.958Z,64.73
2022-11-19T10:56:28.637Z,63.09
2022-11-19T10:59:32.808Z,63.06
2022-11-19T11:02:46.953Z,61.36
2022-11-19T11:05:55.557Z,61.52
2022-11-19T11:08:57.738Z,61.96
2022-11-19T11:12:30.656Z,62.21
2022-11-19T11:15:32.820Z,63.13
2022-11-19T11:18:35.429Z,62.71
2022-11-19T11:21:38.933Z,63.15
2022-11-19T11:24:40.886Z,63.09
2022-11-19T11:27:43.046Z,62.61
2022-11-19T11:30:55.863Z,63.33
2022-11-19T11:33:58.166Z,64.77
2022-11-19T11:37:00.939Z,63.72
2022-11-19T11:40:03.706Z,63.26
2022-11-19T11:43:05.685Z,62.66
2022-11-19T11:46:10.316Z,63.21
2022-11-19T11:49:22.236Z,62.74
2022-11-19T11:52:37.148Z,62.65
2022-11-19T11:55:39.058Z,61.98
2022-11-19T11:58:41.265Z,60.52
2022-11-19T12:01:52.798Z,61.12
2022-11-19T12:04:55.808Z,63.36
2022-11-19T12:07:57.735Z,61.27
2022-11-19T12:11:08.459Z,58.90
2022-11-19T12:14:11.557Z,56.59
2022-11-19T12:17:22.835Z,56.37
2022-11-19T12:20:47.845Z,52.40
2022-11-19T12:24:08.365Z,53.45
2022-11-19T12:27:16.677Z,51.79
2022-11-19T12:30:20.437Z,53.38
2022-11-19T12:33:34.559Z,51.51
2022-11-19T12:36:43.065Z,52.80
2022-11-19T12:39:44.958Z,52.15
2022-11-19T12:42:53.219Z,51.20
2022-11-19T12:46:07.073Z,53.74
2022-11-19T12:49:21.318Z,55.04
2022-11-19T12:52:32.428Z,55.92
2022-11-19T12:56:10.186Z,58.13
2022-11-19T12:59:30.681Z,63.14
2022-11-19T13:02:37.583Z,63.22
2022-11-19T13:05:45.484Z,62.53
2022-11-19T13:08:47.577Z,66.71
2022-11-19T13:11:53.144Z,66.43
2022-11-19T13:14:59.015Z,64.90
2022-11-19T13:18:02.306Z,64.87
2022-11-19T13:21:13.753Z,65.94
2022-11-19T13:24:36.730Z,66.67
2022-11-19T13:27:39.120Z,66.03
2022-11-19T13:30:42.601Z,65.92
2022-11-19T13:33:54.053Z,64.13
2022-11-19T13:36:56.100Z,65.01
2022-11-19T13:40:06.121Z,64.89
2022-11-19T13:43:34.477Z,66.96
2022-11-19T13:46:48.045Z,67.59
2022-11-19T13:49:53.400Z,67.41
2022-11-19T13:53:16.723Z,68.99
2022-11-19T13:56:20.157Z,69.33
2022-11-19T13:59:22.531Z,70.42
2022-11-19T14:02:27.618Z,71.01
2022-11-19T14:05:39.022Z,71.81
2022-11-19T14:08:50.911Z,69.60
2022-11-19T14:12:11.231Z,71.27
2022-11-19T14:15:41.218Z,70.24
2022-11-19T14:19:05.008Z,69.24
2022-11-19T14:22:52.068Z,72.83
2022-11-19T14:26:12.763Z,70.65
2022-11-19T14:29:26.942Z,73.52
2022-11-19T14:32:37.181Z,72.39
2022-11-19T14:35:39.476Z,73.43
2022-11-19T14:38:44.039Z,75.54
2022-11-19T14:41:46.212Z,74.02
2022-11-19T14:45:04.037Z,74.55
2022-11-19T14:48:05.996Z,74.72
2022-11-19T14:51:27.031Z,76.32
2022-11-19T14:54:34.385Z,74.52
2022-11-19T14:57:39.172Z,76.62
2022-11-19T15:00:41.316Z,76.83
2022-11-19T15:03:48.247Z,77.63
2022-11-19T15:06:51.205Z,78.70
2022-11-19T15:10:22.929Z,82.56
2022-11-19T15:13:26.521Z,86.56
2022-11-19T15:16:28.966Z,89.14
2022-11-19T15:19:37.816Z,90.47
2022-11-19T15:22:50.022Z,91.63
2022-11-19T15:26:11.051Z,91.22
2022-11-19T15:29:28.714Z,92.00
2022-11-19T15:32:42.813Z,92.42
2022-11-19T15:36:03.981Z,93.30
2022-11-19T15:39:11.801Z,93.33
2022-11-19T15:42:16.876Z,94.17
2022-11-19T15:45:20.812Z,92.86
2022-11-19T15:48:33.675Z,94.21
2022-11-19T15:51:54.086Z,95.19
2022-11-19T15:55:16.542Z,94.97
2022-11-19T15:58:20.211Z,95.30
2022-11-19T16:01:22.873Z,95.73
2022-11-19T16:04:29.006Z,96.82
2022-11-19T16:07:31.063Z,97.32
2022-11-19T16:10:45.762Z,97.26
2022-11-19T16:14:12.854Z,96.71
2022-11-19T16:17:41.827Z,98.01
2022-11-19T16:20:50.304Z,97.65
2022-11-19T16:24:11.514Z,97.21
2022-11-19T16:27:18.739Z,97.92
2022-11-19T16:30:22.278Z,97.86
2022-11-19T16:33:26.070Z,97.92
2022-11-19T16:36:29.923Z,97.95
2022-11-19T16:39:32.405Z,97.51
2022-11-19T16:42:34.592Z,97.75
2022-11-19T16:45:36.475Z,98.32
2022-11-19T16:48:42.517Z,98.08
2022-11-19T16:51:54.455Z,97.68
2022-11-19T16:54:56.676Z,96.71
2022-11-19T16:58:00.024Z,97.08
2022-11-19T17:01:03.467Z,96.33
2022-11-19T17:04:09.274Z,95.54
2022-11-19T17:07:12.854Z,95.84
2022-11-19T17:10:22.693Z,95.87
2022-11-19T17:13:30.234Z,97.01
2022-11-19T17:16:33.495Z,98.27
2022-11-19T17:19:36.171Z,98.65
2022-11-19T17:22:39.189Z,96.66
2022-11-19T17:25:45.453Z,95.92
2022-11-19T17:28:48.851Z,95.35
2022-11-19T17:31:52.771Z,96.33
2022-11-19T17:34:55.369Z,96.28
2022-11-19T17:38:01.787Z,95.61
2022-11-19T17:41:05.075Z,95.81
2022-11-19T17:44:40.296Z,96.02
2022-11-19T17:47:45.779Z,94.88
2022-11-19T17:50:47.916Z,94.98
2022-11-19T17:53:51.709Z,95.23
2022-11-19T17:56:53.950Z,95.75
2022-11-19T17:59:55.871Z,95.75
2022-11-19T18:03:02.859Z,95.96
2022-11-19T18:06:07.045Z,94.63
2022-11-19T18:09:09.116Z,95.19
2022-11-19T18:12:13.757Z,95.74
2022-11-19T18:15:17.556Z,96.48
2022-11-19T18:18:19.785Z,95.34
2022-11-19T18:21:22.906Z,96.19
2022-11-19T18:24:25.135Z,96.54
2022-11-19T18:27:27.154Z,97.10
2022-11-19T18:30:29.371Z,97.46
2022-11-19T18:33:31.987Z,98.08
2022-11-19T18:36:34.180Z,98.34
2022-11-19T18:39:36.082Z,98.35
2022-11-19T18:42:38.401Z,98.47
2022-11-19T18:45:40.302Z,99.14
2022-11-19T18:48:42.522Z,99.43
2022-11-19T18:51:44.503Z,98.19
2022-11-19T18:54:46.705Z,98.60
2022-11-19T18:57:48.721Z,98.96
2022-11-19T19:00:50.925Z,99.37
2022-11-19T19:03:52.921Z,99.28
2022-11-19T19:06:55.247Z,100.00
2022-11-19T19:09:58.112Z,98.95
2022-11-19T19:13:00.418Z,99.53
2022-11-19T19:16:02.275Z,99.28
2022-11-19T19:19:04.507Z,98.67
2022-11-19T19:22:07.020Z,98.09
2022-11-19T19:25:09.631Z,98.37
2022-11-19T19:28:11.601Z,97.90
2022-11-19T19:31:17.831Z,97.36
2022-11-19T19:34:20.125Z,97.41
2022-11-19T19:37:22.378Z,97.85
2022-11-19T19:40:24.309Z,97.83
2022-11-19T19:43:28.909Z,98.71
2022-11-19T19:46:31.647Z,97.88
2022-11-19T19:49:38.652Z,98.48
2022-11-19T19:52:41.023Z,98.72
2022-11-19T19:55:43.188Z,97.77
2022-11-19T19:58:45.817Z,95.86
2022-11-19T20:01:48.167Z,97.23
2022-11-19T20:04:50.353Z,96.07
2022-11-19T20:07:52.533Z,96.18
2022-11-19T20:10:54.774Z,95.99
2022-11-19T20:13:57.124Z,97.38
2022-11-19T20:16:59.388Z,95.62
2022-11-19T20:20:01.343Z,95.32
2022-11-19T20:23:03.514Z,96.42
2022-11-19T20:26:07.617Z,95.30
2022-11-19T20:29:11.560Z,95.59
2022-11-19T20:32:13.521Z,95.42
2022-11-19T20:35:15.892Z,94.95
2022-11-19T20:38:18.052Z,95.43
2022-11-19T20:41:39.496Z,94.68
2022-11-19T20:44:41.540Z,95.10
2022-11-19T20:47:43.801Z,94.62
2022-11-19T20:50:45.725Z,94.78
2022-11-19T20:53:47.954Z,94.67
2022-11-19T20:56:50.444Z,96.08
2022-11-19T20:59:52.615Z,94.04
2022-11-19T21:02:54.557Z,94.30
2022-11-19T21:05:57.932Z,93.40
2022-11-19T21:08:59.877Z,92.52
2022-11-19T21:12:02.058Z,91.91
2022-11-19T21:15:04.209Z,92.83
2022-11-19T21:18:06.479Z,92.23
2022-11-19T21:21:09.191Z,92.06
2022-11-19T21:24:11.848Z,92.12
2022-11-19T21:27:13.708Z,92.35
2022-11-19T21:30:15.997Z,91.92
2022-11-19T21:33:17.925Z,92.54
2022-11-19T21:36:20.084Z,93.31
2022-11-19T21:39:22.275Z,93.42
2022-11-19T21:42:26.725Z,93.16
2022-11-19T21:45:28.627Z,93.82
2022-11-19T21:48:30.784Z,93.00
2022-11-19T21:51:32.704Z,92.64
2022-11-19T21:54:34.909Z,93.46
2022-11-19T21:57:36.844Z,92.85
2022-11-19T22:00:39.485Z,91.23
2022-11-19T22:03:41.706Z,91.92
2022-11-19T22:06:43.670Z,91.40
2022-11-19T22:09:45.880Z,91.74
2022-11-19T22:12:47.864Z,91.87
2022-11-19T22:15:50.736Z,92.67
2022-11-19T22:18:52.668Z,92.65
2022-11-19T22:21:54.921Z,93.41
2022-11-19T22:24:56.863Z,93.26
2022-11-19T22:27:59.027Z,92.16
2022-11-19T22:31:00.934Z,91.55
2022-11-19T22:34:03.136Z,90.63
2022-11-19T22:37:05.780Z,91.07
2022-11-19T22:40:08.410Z,90.89
2022-11-19T22:43:10.313Z,92.37
2022-11-19T22:46:13.597Z,91.06
2022-11-19T22:49:15.513Z,92.25
2022-11-19T22:52:17.754Z,89.94
2022-11-19T22:55:19.712Z,89.77
2022-11-19T22:58:21.916Z,90.87
2022-11-19T23:01:31.346Z,91.31
2022-11-19T23:04:33.528Z,89.38
2022-11-19T23:07:35.404Z,90.07
2022-11-19T23:10:37.682Z,91.02
2022-11-19T23:13:40.907Z,89.83
2022-11-19T23:16:43.688Z,91.26
2022-11-19T23:19:45.693Z,91.57
2022-11-19T23:22:47.874Z,89.88
2022-11-19T23:25:50.048Z,90.82
2022-11-19T23:28:53.041Z,91.38
2022-11-19T23:31:55.062Z,90.33
2022-11-19T23:34:57.217Z,89.62
2022-11-19T23:37:59.122Z,90.44
2022-11-19T23:41:01.864Z,89.25
2022-11-19T23:44:03.885Z,87.95
2022-11-19T23:47:06.718Z,88.50
2022-11-19T23:50:08.683Z,88.39
2022-11-19T23:53:10.888Z,88.93
2022-11-19T23:56:13.582Z,90.72
2022-11-19T23:59:15.827Z,90.31
